createdAt,value
2022-12-31T00:01:46.388Z,98404.81
2022-12-31T00:04:13.172Z,98402.19
2022-12-31T00:06:39.820Z,98408.31
2022-12-31T00:09:09.870Z,98411.75
2022-12-31T00:11:37.673Z,98404.81
2022-12-31T00:14:04.756Z,98408.28
2022-12-31T00:16:36.474Z,98411.78
2022-12-31T00:19:05.129Z,98418.75
2022-12-31T00:21:33.505Z,98416.13
2022-12-31T00:24:00.992Z,98418.75
2022-12-31T00:26:29.926Z,98420.47
2022-12-31T00:28:58.447Z,98422.19
2022-12-31T00:31:28.184Z,98426.56
2022-12-31T00:33:55.708Z,98430.03
2022-12-31T00:36:26.092Z,98430.00
2022-12-31T00:38:54.654Z,98423.94
2022-12-31T00:41:22.549Z,98432.66
2022-12-31T00:43:49.602Z,98432.63
2022-12-31T00:46:16.994Z,98422.19
2022-12-31T00:48:43.660Z,98429.16
2022-12-31T00:51:12.625Z,98429.13
2022-12-31T00:53:39.877Z,98427.41
2022-12-31T00:56:18.466Z,98427.38
2022-12-31T00:58:45.359Z,98426.53
2022-12-31T01:01:20.045Z,98433.47
2022-12-31T01:03:48.240Z,98423.94
2022-12-31T01:06:15.015Z,98441.31
2022-12-31T01:08:41.687Z,98430.03
2022-12-31T01:11:19.256Z,98433.50
2022-12-31T01:13:52.387Z,98433.50
2022-12-31T01:16:23.706Z,98437.84
2022-12-31T01:18:50.497Z,98450.88
2022-12-31T01:21:18.253Z,98443.03
2022-12-31T01:23:45.053Z,98451.75
2022-12-31T01:26:14.268Z,98449.13
2022-12-31T01:28:41.261Z,98443.91
2022-12-31T01:31:10.325Z,98442.19
2022-12-31T01:33:37.583Z,98443.94
2022-12-31T01:36:13.500Z,98447.41
2022-12-31T01:38:41.158Z,98443.03
2022-12-31T01:41:12.085Z,98444.78
2022-12-31T01:43:54.483Z,98442.09
2022-12-31T01:46:40.532Z,98443.81
2022-12-31T01:49:17.649Z,98442.09
2022-12-31T01:51:48.854Z,98443.00
2022-12-31T01:54:18.348Z,98432.56
2022-12-31T01:56:47.569Z,98434.31
2022-12-31T01:59:17.047Z,98443.88
2022-12-31T02:01:44.665Z,98435.19
2022-12-31T02:04:13.835Z,98443.00
2022-12-31T02:07:02.242Z,98441.25
2022-12-31T02:09:29.835Z,98443.88
2022-12-31T02:11:56.490Z,98441.22
2022-12-31T02:14:26.979Z,98452.50
2022-12-31T02:17:09.223Z,98452.47
2022-12-31T02:19:57.574Z,98443.81
2022-12-31T02:22:54.826Z,98449.88
2022-12-31T02:25:43.100Z,98447.25
2022-12-31T02:28:31.463Z,98455.88
2022-12-31T02:31:11.369Z,98453.25
2022-12-31T02:33:52.952Z,98449.78
2022-12-31T02:36:25.627Z,98448.91
2022-12-31T02:38:52.810Z,98453.25
2022-12-31T02:41:39.744Z,98456.72
2022-12-31T02:44:29.004Z,98453.31
2022-12-31T02:47:13.749Z,98455.94
2022-12-31T02:50:13.409Z,98461.16
2022-12-31T02:52:52.146Z,98458.59
2022-12-31T02:55:35.269Z,98460.31
2022-12-31T02:58:01.777Z,98459.44
2022-12-31T03:00:51.252Z,98463.78
2022-12-31T03:03:20.335Z,98463.78
2022-12-31T03:05:49.553Z,98462.03
2022-12-31T03:08:23.931Z,98460.31
2022-12-31T03:10:51.234Z,98462.91
2022-12-31T03:13:20.235Z,98458.56
2022-12-31T03:15:46.800Z,98454.22
2022-12-31T03:18:18.244Z,98450.72
2022-12-31T03:21:06.799Z,98453.25
2022-12-31T03:23:35.595Z,98453.16
2022-12-31T03:26:09.858Z,98454.84
2022-12-31T03:28:41.560Z,98461.69
2022-12-31T03:31:08.621Z,98471.16
2022-12-31T03:33:38.107Z,98471.97
2022-12-31T03:36:08.716Z,98472.81
2022-12-31T03:38:35.801Z,98480.66
2022-12-31T03:41:02.736Z,98477.22
2022-12-31T03:43:29.410Z,98485.03
2022-12-31T03:45:58.641Z,98483.47
2022-12-31T03:48:26.686Z,98482.69
2022-12-31T03:50:53.283Z,98483.53
2022-12-31T03:53:19.900Z,98491.31
2022-12-31T03:55:52.059Z,98492.19
2022-12-31T03:58:18.767Z,98491.31
2022-12-31T04:00:45.431Z,98498.28
2022-12-31T04:03:12.141Z,98498.25
2022-12-31T04:05:38.745Z,98500.81
2022-12-31T04:08:05.400Z,98504.25
2022-12-31T04:10:31.952Z,98509.44
2022-12-31T04:13:00.556Z,98511.88
2022-12-31T04:15:27.100Z,98512.69
2022-12-31T04:17:53.719Z,98511.75
2022-12-31T04:20:20.313Z,98513.47
2022-12-31T04:22:46.950Z,98519.56
2022-12-31T04:25:13.682Z,98516.09
2022-12-31T04:27:41.471Z,98517.81
2022-12-31T04:30:09.175Z,98510.91
2022-12-31T04:32:35.816Z,98517.88
2022-12-31T04:35:02.485Z,98508.22
2022-12-31T04:37:29.096Z,98511.66
2022-12-31T04:40:00.315Z,98513.28
2022-12-31T04:42:30.310Z,98519.28
2022-12-31T04:44:57.025Z,98528.72
2022-12-31T04:47:24.079Z,98523.44
2022-12-31T04:49:50.856Z,98526.06
2022-12-31T04:52:17.406Z,98523.50
2022-12-31T04:54:44.025Z,98532.19
2022-12-31T04:57:10.671Z,98529.50
2022-12-31T04:59:37.240Z,98539.84
2022-12-31T05:02:04.011Z,98536.38
2022-12-31T05:04:30.853Z,98536.31
2022-12-31T05:06:57.548Z,98537.06
2022-12-31T05:09:27.515Z,98544.00
2022-12-31T05:11:54.228Z,98547.38
2022-12-31T05:14:20.989Z,98549.00
2022-12-31T05:16:47.828Z,98555.06
2022-12-31T05:19:14.605Z,98549.94
2022-12-31T05:21:41.299Z,98547.34
2022-12-31T05:24:08.410Z,98550.06
2022-12-31T05:26:35.380Z,98557.97
2022-12-31T05:29:02.029Z,98563.19
2022-12-31T05:31:28.754Z,98569.22
2022-12-31T05:33:55.446Z,98569.22
2022-12-31T05:36:22.093Z,98572.63
2022-12-31T05:38:48.809Z,98575.19
2022-12-31T05:41:15.397Z,98573.50
2022-12-31T05:43:42.072Z,98570.13
2022-12-31T05:46:08.981Z,98563.28
2022-12-31T05:48:35.715Z,98569.41
2022-12-31T05:51:02.448Z,98582.31
2022-12-31T05:53:29.141Z,98574.41
2022-12-31T05:55:55.730Z,98576.13
2022-12-31T05:58:22.294Z,98591.56
2022-12-31T06:00:48.952Z,98593.38
2022-12-31T06:03:15.669Z,98593.53
2022-12-31T06:05:43.371Z,98594.41
2022-12-31T06:08:12.177Z,98601.34
2022-12-31T06:10:39.933Z,98596.16
2022-12-31T06:13:07.355Z,98595.34
2022-12-31T06:15:37.545Z,98597.16
2022-12-31T06:18:04.434Z,98596.25
2022-12-31T06:20:31.161Z,98605.81
2022-12-31T06:22:57.868Z,98608.47
2022-12-31T06:25:24.513Z,98604.13
2022-12-31T06:27:51.095Z,98618.84
2022-12-31T06:30:17.815Z,98617.16
2022-12-31T06:32:44.403Z,98614.53
2022-12-31T06:35:11.261Z,98615.44
2022-12-31T06:37:37.943Z,98608.56
2022-12-31T06:40:05.178Z,98619.00
2022-12-31T06:42:31.956Z,98628.50
2022-12-31T06:44:59.298Z,98625.91
2022-12-31T06:47:26.177Z,98631.16
2022-12-31T06:49:53.260Z,98629.44
2022-12-31T06:52:20.224Z,98630.31
2022-12-31T06:54:47.125Z,98628.69
2022-12-31T06:57:14.388Z,98633.06
2022-12-31T06:59:41.469Z,98638.97
2022-12-31T07:02:29.902Z,98644.16
2022-12-31T07:05:11.838Z,98644.09
2022-12-31T07:08:01.622Z,98652.00
2022-12-31T07:10:47.108Z,98664.19
2022-12-31T07:13:46.091Z,98657.41
2022-12-31T07:16:30.794Z,98652.19
2022-12-31T07:19:16.493Z,98652.19
2022-12-31T07:21:43.906Z,98654.81
2022-12-31T07:24:11.899Z,98653.13
2022-12-31T07:27:03.253Z,98661.16
2022-12-31T07:29:29.803Z,98665.50
2022-12-31T07:31:56.491Z,98662.78
2022-12-31T07:34:30.651Z,98663.81
2022-12-31T07:37:01.589Z,98671.59
2022-12-31T07:39:37.078Z,98670.66
2022-12-31T07:42:09.767Z,98663.81
2022-12-31T07:44:45.148Z,98662.94
2022-12-31T07:47:27.252Z,98670.69
2022-12-31T07:49:55.159Z,98666.34
2022-12-31T07:52:22.366Z,98669.75
2022-12-31T07:54:49.253Z,98663.69
2022-12-31T07:57:18.137Z,98663.75
2022-12-31T07:59:50.423Z,98665.44
2022-12-31T08:02:44.738Z,98669.03
2022-12-31T08:05:29.898Z,98673.47
2022-12-31T08:08:05.781Z,98661.47
2022-12-31T08:10:43.746Z,98663.25
2022-12-31T08:13:12.314Z,98652.88
2022-12-31T08:15:40.190Z,98658.09
2022-12-31T08:18:08.094Z,98653.84
2022-12-31T08:20:58.463Z,98662.47
2022-12-31T08:23:32.672Z,98658.81
2022-12-31T08:26:17.275Z,98662.34
2022-12-31T08:29:16.997Z,98653.81
2022-12-31T08:31:58.329Z,98655.63
2022-12-31T08:34:34.179Z,98656.56
2022-12-31T08:37:32.933Z,98665.25
2022-12-31T08:40:08.227Z,98674.69
2022-12-31T08:43:01.198Z,98672.13
2022-12-31T08:45:41.358Z,98666.97
2022-12-31T08:48:35.559Z,98678.09
2022-12-31T08:51:02.493Z,98675.47
2022-12-31T08:53:29.435Z,98672.19
2022-12-31T08:56:03.658Z,98686.84
2022-12-31T08:58:45.433Z,98680.06
2022-12-31T09:01:14.980Z,98677.59
2022-12-31T09:03:47.095Z,98679.47
2022-12-31T09:06:36.184Z,98680.38
2022-12-31T09:09:28.186Z,98682.16
2022-12-31T09:11:59.053Z,98682.22
2022-12-31T09:14:34.309Z,98666.63
2022-12-31T09:17:10.267Z,98657.03
2022-12-31T09:19:36.942Z,98646.56
2022-12-31T09:22:04.115Z,98636.13
2022-12-31T09:24:31.087Z,98648.31
2022-12-31T09:27:09.616Z,98645.66
2022-12-31T09:29:42.159Z,98645.66
2022-12-31T09:32:08.886Z,98640.38
2022-12-31T09:34:35.490Z,98637.78
2022-12-31T09:37:18.006Z,98636.97
2022-12-31T09:39:47.270Z,98639.59
2022-12-31T09:42:35.766Z,98639.59
2022-12-31T09:45:30.942Z,98640.47
2022-12-31T09:48:07.034Z,98629.13
2022-12-31T09:51:11.233Z,98615.22
2022-12-31T09:54:08.665Z,98625.66
2022-12-31T09:56:36.926Z,98618.69
2022-12-31T09:59:12.892Z,98616.03
2022-12-31T10:02:19.608Z,98618.63
2022-12-31T10:05:20.796Z,98616.88
2022-12-31T10:08:06.188Z,98614.22
2022-12-31T10:10:50.933Z,98615.03
2022-12-31T10:13:29.805Z,98618.50
2022-12-31T10:16:22.002Z,98614.09
2022-12-31T10:19:14.119Z,98614.00
2022-12-31T10:22:14.433Z,98603.53
2022-12-31T10:25:05.097Z,98607.84
2022-12-31T10:27:43.942Z,98615.66
2022-12-31T10:30:18.760Z,98611.25
2022-12-31T10:33:00.664Z,98602.44
2022-12-31T10:35:40.099Z,98599.75
2022-12-31T10:38:57.995Z,98593.59
2022-12-31T10:41:33.404Z,98580.44
2022-12-31T10:44:33.153Z,98578.56
2022-12-31T10:47:24.781Z,98572.34
2022-12-31T10:49:57.535Z,98561.72
2022-12-31T10:53:13.135Z,98563.34
2022-12-31T10:55:58.630Z,98568.63
2022-12-31T10:58:31.198Z,98574.66
2022-12-31T11:01:19.193Z,98567.53
2022-12-31T11:04:03.931Z,98557.84
2022-12-31T11:06:52.402Z,98562.16
2022-12-31T11:09:49.970Z,98566.47
2022-12-31T11:13:01.233Z,98562.09
2022-12-31T11:15:52.363Z,98557.63
2022-12-31T11:18:37.367Z,98569.81
2022-12-31T11:21:28.288Z,98567.06
2022-12-31T11:24:26.590Z,98564.13
2022-12-31T11:27:07.579Z,98563.97
2022-12-31T11:29:40.317Z,98566.56
2022-12-31T11:32:36.389Z,98574.38
2022-12-31T11:35:20.777Z,98559.34
2022-12-31T11:37:50.601Z,98564.47
2022-12-31T11:40:42.041Z,98559.03
2022-12-31T11:43:22.765Z,98565.06
2022-12-31T11:46:15.706Z,98570.25
2022-12-31T11:49:04.329Z,98556.13
2022-12-31T11:51:50.025Z,98557.91
2022-12-31T11:54:40.285Z,98554.94
2022-12-31T11:57:19.143Z,98553.78
2022-12-31T11:59:46.804Z,98559.88
2022-12-31T12:02:37.605Z,98558.81
2022-12-31T12:05:11.104Z,98555.25
2022-12-31T12:07:38.372Z,98546.63
2022-12-31T12:10:36.727Z,98545.59
2022-12-31T12:13:20.420Z,98548.03
2022-12-31T12:15:51.043Z,98545.38
2022-12-31T12:18:43.755Z,98543.72
2022-12-31T12:21:24.186Z,98547.38
2022-12-31T12:24:06.340Z,98534.31
2022-12-31T12:26:39.299Z,98541.19
2022-12-31T12:29:16.972Z,98537.59
2022-12-31T12:32:12.528Z,98529.75
2022-12-31T12:34:44.534Z,98530.69
2022-12-31T12:37:27.134Z,98529.88
2022-12-31T12:40:02.502Z,98533.47
2022-12-31T12:42:30.250Z,98537.91
2022-12-31T12:45:23.122Z,98536.16
2022-12-31T12:47:56.450Z,98535.28
2022-12-31T12:50:26.776Z,98543.13
2022-12-31T12:53:37.679Z,98540.28
2022-12-31T12:56:07.107Z,98533.31
2022-12-31T12:58:49.876Z,98534.97
2022-12-31T13:01:44.639Z,98542.84
2022-12-31T13:04:36.175Z,98535.63
2022-12-31T13:07:26.378Z,98540.88
2022-12-31T13:10:08.047Z,98540.94
2022-12-31T13:16:21.357Z,98544.94
2022-12-31T13:19:09.304Z,98553.59
2022-12-31T13:21:47.238Z,98553.53
2022-12-31T13:24:47.079Z,98565.59
2022-12-31T13:27:45.967Z,98561.31
2022-12-31T13:30:19.746Z,98561.38
2022-12-31T13:33:09.587Z,98559.72
2022-12-31T13:35:57.772Z,98568.69
2022-12-31T13:38:32.807Z,98569.69
2022-12-31T13:41:21.275Z,98578.59
2022-12-31T13:44:32.606Z,98567.19
2022-12-31T13:47:48.494Z,98571.72
2022-12-31T13:50:19.422Z,98571.03
2022-12-31T13:52:57.969Z,98569.25
2022-12-31T13:55:33.929Z,98570.31
2022-12-31T13:58:15.648Z,98564.34
2022-12-31T14:00:52.906Z,98561.91
2022-12-31T14:03:25.854Z,98560.25
2022-12-31T14:05:58.595Z,98571.84
2022-12-31T14:08:25.256Z,98566.59
2022-12-31T14:11:07.622Z,98571.81
2022-12-31T14:13:35.043Z,98587.66
2022-12-31T14:16:10.642Z,98572.81
2022-12-31T14:18:54.124Z,98578.28
2022-12-31T14:21:33.241Z,98581.06
2022-12-31T14:24:12.932Z,98573.38
2022-12-31T14:27:03.908Z,98564.00
2022-12-31T14:30:03.876Z,98554.44
2022-12-31T14:33:08.797Z,98559.91
2022-12-31T14:35:55.811Z,98566.16
2022-12-31T14:38:50.676Z,98568.97
2022-12-31T14:41:44.974Z,98567.25
2022-12-31T14:44:42.280Z,98567.41
2022-12-31T14:47:27.633Z,98566.59
2022-12-31T14:50:11.073Z,98575.44
2022-12-31T14:52:53.168Z,98566.75
2022-12-31T14:55:24.637Z,98569.47
2022-12-31T14:58:26.379Z,98565.22
2022-12-31T15:00:50.821Z,98571.34
2022-12-31T15:03:17.630Z,98569.63
2022-12-31T15:05:54.472Z,98570.56
2022-12-31T15:08:39.560Z,98580.22
2022-12-31T15:11:25.488Z,98589.00
2022-12-31T15:14:38.916Z,98600.31
2022-12-31T15:17:42.466Z,98599.59
2022-12-31T15:20:17.196Z,98611.84
2022-12-31T15:22:44.392Z,98604.88
2022-12-31T15:25:47.761Z,98605.78
2022-12-31T15:28:40.874Z,98611.06
2022-12-31T15:31:18.501Z,98612.88
2022-12-31T15:34:00.948Z,98615.56
2022-12-31T15:36:41.879Z,98622.53
2022-12-31T15:39:11.189Z,98625.19
2022-12-31T15:42:10.339Z,98623.47
2022-12-31T15:44:33.130Z,98615.63
2022-12-31T15:47:15.928Z,98624.38
2022-12-31T15:49:47.860Z,98618.25
2022-12-31T15:52:36.568Z,98627.06
2022-12-31T15:55:05.670Z,98622.69
2022-12-31T15:57:40.336Z,98626.16
2022-12-31T16:00:19.675Z,98631.44
2022-12-31T16:02:48.584Z,98625.41
2022-12-31T16:05:28.070Z,98631.50
2022-12-31T16:07:56.927Z,98631.50
2022-12-31T16:10:35.406Z,98635.88
2022-12-31T16:13:02.132Z,98638.53
2022-12-31T16:15:31.639Z,98639.44
2022-12-31T16:18:23.160Z,98644.69
2022-12-31T16:20:51.842Z,98647.28
2022-12-31T16:23:27.598Z,98635.09
2022-12-31T16:26:00.649Z,98645.56
2022-12-31T16:28:32.519Z,98643.84
2022-12-31T16:31:03.060Z,98656.91
2022-12-31T16:33:31.198Z,98657.81
2022-12-31T16:36:00.065Z,98660.47
2022-12-31T16:38:35.381Z,98655.22
2022-12-31T16:41:01.903Z,98659.59
2022-12-31T16:43:30.928Z,98661.31
2022-12-31T16:46:11.834Z,98662.13
2022-12-31T16:48:38.913Z,98665.59
2022-12-31T16:51:06.217Z,98659.50
2022-12-31T16:53:37.202Z,98662.09
2022-12-31T16:56:10.787Z,98660.34
2022-12-31T16:58:41.693Z,98658.56
2022-12-31T17:01:26.093Z,98662.97
2022-12-31T17:03:58.392Z,98664.69
2022-12-31T17:06:27.208Z,98668.13
2022-12-31T17:08:57.948Z,98668.16
2022-12-31T17:11:30.468Z,98675.97
2022-12-31T17:14:06.746Z,98675.94
2022-12-31T17:17:06.384Z,98672.50
2022-12-31T17:19:35.997Z,98669.06
2022-12-31T17:22:09.798Z,98671.72
2022-12-31T17:24:38.035Z,98670.84
2022-12-31T17:27:08.881Z,98668.28
2022-12-31T17:29:36.146Z,98670.03
2022-12-31T17:32:02.720Z,98669.16
2022-12-31T17:34:49.122Z,98659.56
2022-12-31T17:37:23.246Z,98680.50
2022-12-31T17:40:48.652Z,98682.25
2022-12-31T17:42:50.320Z,98681.38
2022-12-31T17:45:22.111Z,98680.50
2022-12-31T17:47:52.545Z,98683.97
2022-12-31T17:50:26.094Z,98684.84
2022-12-31T17:52:56.503Z,98676.97
2022-12-31T17:55:23.486Z,98683.94
2022-12-31T17:57:53.567Z,98687.41
2022-12-31T18:00:23.527Z,98690.03
2022-12-31T18:02:52.650Z,98703.97
2022-12-31T18:05:21.633Z,98702.22
2022-12-31T18:07:48.322Z,98699.59
2022-12-31T18:10:17.415Z,98700.50
2022-12-31T18:12:45.096Z,98698.75
2022-12-31T18:15:17.410Z,98703.97
2022-12-31T18:17:44.600Z,98698.75
2022-12-31T18:20:12.276Z,98693.53
2022-12-31T18:22:41.252Z,98697.00
2022-12-31T18:25:19.215Z,98702.22
2022-12-31T18:27:45.926Z,98695.28
2022-12-31T18:30:13.283Z,98700.50
2022-12-31T18:32:41.552Z,98704.84
2022-12-31T18:38:13.250Z,98700.47
2022-12-31T18:40:44.203Z,98715.28
2022-12-31T18:43:18.921Z,98703.94
2022-12-31T18:45:46.774Z,98712.66
2022-12-31T18:48:13.507Z,98719.63
2022-12-31T18:50:41.396Z,98719.63
2022-12-31T18:53:14.901Z,98727.44
2022-12-31T18:55:46.138Z,98734.41
2022-12-31T18:58:12.765Z,98732.69
2022-12-31T19:00:39.585Z,98730.09
2022-12-31T19:03:06.339Z,98736.25
2022-12-31T19:05:36.611Z,98738.00
2022-12-31T19:08:03.423Z,98734.53
2022-12-31T19:10:30.076Z,98727.53
2022-12-31T19:12:56.698Z,98731.91
2022-12-31T19:15:25.971Z,98731.94
2022-12-31T19:17:52.881Z,98732.75
2022-12-31T19:20:19.554Z,98733.66
2022-12-31T19:22:46.265Z,98732.78
2022-12-31T19:25:35.833Z,98731.91
2022-12-31T19:28:04.269Z,98722.28
2022-12-31T19:30:33.452Z,98729.22
2022-12-31T19:33:00.553Z,98729.25
2022-12-31T19:35:27.949Z,98725.78
2022-12-31T19:37:55.525Z,98731.84
2022-12-31T19:40:25.117Z,98728.41
2022-12-31T19:42:56.331Z,98743.19
2022-12-31T19:45:27.522Z,98738.84
2022-12-31T19:47:55.953Z,98738.88
2022-12-31T19:50:25.601Z,98745.88
2022-12-31T19:52:54.760Z,98751.09
2022-12-31T19:55:22.910Z,98748.44
2022-12-31T19:57:49.674Z,98747.59
2022-12-31T20:00:18.193Z,98755.44
2022-12-31T20:02:47.452Z,98753.69
2022-12-31T20:05:15.828Z,98746.72
2022-12-31T20:07:42.724Z,98745.00
2022-12-31T20:10:10.888Z,98741.50
2022-12-31T20:12:43.919Z,98748.44
2022-12-31T20:15:11.214Z,98751.94
2022-12-31T20:17:38.020Z,98756.28
2022-12-31T20:20:06.832Z,98760.63
2022-12-31T20:22:33.685Z,98764.13
2022-12-31T20:25:00.415Z,98766.72
2022-12-31T20:27:27.063Z,98770.22
2022-12-31T20:29:53.693Z,98762.38
2022-12-31T20:32:20.312Z,98758.91
2022-12-31T20:34:46.936Z,98759.78
2022-12-31T20:37:13.722Z,98760.66
2022-12-31T20:39:40.353Z,98761.53
2022-12-31T20:42:07.059Z,98773.69
2022-12-31T20:44:33.873Z,98777.19
2022-12-31T20:47:00.531Z,98774.56
2022-12-31T20:50:00.837Z,98777.19
2022-12-31T20:52:13.766Z,98784.13
2022-12-31T20:54:40.373Z,98783.28
2022-12-31T20:57:07.027Z,98787.66
2022-12-31T20:59:33.639Z,98784.16
2022-12-31T21:04:47.156Z,98771.13
2022-12-31T21:07:13.828Z,98776.34
2022-12-31T21:09:40.443Z,98771.09
2022-12-31T21:12:25.631Z,98772.84
2022-12-31T21:14:52.275Z,98779.81
2022-12-31T21:17:18.850Z,98785.91
2022-12-31T21:19:45.681Z,98797.25
2022-12-31T21:22:12.459Z,98794.66
2022-12-31T21:24:41.570Z,98791.13
2022-12-31T21:27:08.161Z,98793.75
2022-12-31T21:29:41.876Z,98797.25
2022-12-31T21:32:17.135Z,98815.53
2022-12-31T21:34:43.701Z,98801.59
2022-12-31T21:37:10.340Z,98799.00
2022-12-31T21:39:36.938Z,98809.47
2022-12-31T21:42:04.032Z,98817.28
2022-12-31T21:44:30.803Z,98825.16
2022-12-31T21:47:39.717Z,98817.28
2022-12-31T21:50:08.209Z,98812.91
2022-12-31T21:52:35.284Z,98813.81
2022-12-31T21:55:22.867Z,98823.41
2022-12-31T22:00:56.109Z,98819.03
2022-12-31T22:03:27.800Z,98812.94
2022-12-31T22:06:12.555Z,98814.69
2022-12-31T22:08:44.151Z,98819.91
2022-12-31T22:11:12.459Z,98812.94
2022-12-31T22:13:39.888Z,98819.03
2022-12-31T22:16:07.611Z,98819.91
2022-12-31T22:18:38.844Z,98822.50
2022-12-31T22:21:18.408Z,98816.41
2022-12-31T22:23:52.112Z,98820.78
2022-12-31T22:26:22.021Z,98819.91
2022-12-31T22:28:48.690Z,98798.09
2022-12-31T22:31:22.743Z,98811.19
2022-12-31T22:33:49.482Z,98820.72
2022-12-31T22:36:19.815Z,98823.34
2022-12-31T22:38:47.286Z,98822.50
2022-12-31T22:41:19.561Z,98819.00
2022-12-31T22:44:03.791Z,98819.00
2022-12-31T22:46:32.645Z,98820.72
2022-12-31T22:49:00.475Z,98820.75
2022-12-31T22:51:54.985Z,98823.38
2022-12-31T22:54:14.821Z,98814.66
2022-12-31T22:56:41.619Z,98822.53
2022-12-31T22:59:08.593Z,98817.25
2022-12-31T23:01:35.362Z,98822.50
2022-12-31T23:04:02.059Z,98814.66
2022-12-31T23:06:29.170Z,98808.56
2022-12-31T23:09:14.505Z,98809.44
2022-12-31T23:11:43.126Z,98802.50
2022-12-31T23:14:34.312Z,98798.13
2022-12-31T23:17:29.675Z,98805.97
2022-12-31T23:20:18.377Z,98802.47
2022-12-31T23:23:04.895Z,98799.88
2022-12-31T23:25:43.716Z,98787.66
2022-12-31T23:28:13.571Z,98793.75
2022-12-31T23:30:41.641Z,98792.03
2022-12-31T23:33:12.419Z,98787.66
2022-12-31T23:35:39.014Z,98785.91
2022-12-31T23:38:05.634Z,98792.00
2022-12-31T23:40:37.086Z,98787.66
2022-12-31T23:43:08.118Z,98786.78
2022-12-31T23:45:35.115Z,98795.53
2022-12-31T23:48:01.952Z,98799.00
2022-12-31T23:50:28.958Z,98800.75
2022-12-31T23:52:55.644Z,98800.75
2022-12-31T23:55:22.232Z,98826.88
2022-12-31T23:57:48.904Z,98818.16
